createdAt,value
2023-01-18T00:00:35.067Z,10.02
2023-01-18T00:03:02.352Z,7.60
2023-01-18T00:05:29.584Z,9.48
2023-01-18T00:07:56.928Z,11.40
2023-01-18T00:10:24.590Z,8.52
2023-01-18T00:12:51.871Z,8.65
2023-01-18T00:15:19.222Z,8.13
2023-01-18T00:17:51.647Z,12.18
2023-01-18T00:20:20.467Z,9.27
2023-01-18T00:22:47.681Z,7.82
2023-01-18T00:25:14.998Z,9.93
2023-01-18T00:45:49.535Z,9.65
2023-01-18T00:48:16.793Z,7.35
2023-01-18T00:50:44.996Z,7.93
2023-01-18T00:53:12.248Z,8.10
2023-01-18T00:55:39.558Z,10.13
2023-01-18T00:58:06.795Z,8.23
2023-01-18T01:00:34.065Z,12.52
2023-01-18T01:03:01.723Z,8.05
2023-01-18T01:05:48.232Z,8.70
2023-01-18T01:08:17.204Z,11.27
2023-01-18T01:10:51.362Z,7.25
2023-01-18T01:13:38.660Z,10.18
2023-01-18T01:16:28.847Z,10.60
2023-01-18T01:19:15.468Z,9.35
2023-01-18T01:22:01.650Z,10.40
2023-01-18T01:24:47.897Z,8.60
2023-01-18T01:27:15.144Z,7.22
2023-01-18T01:29:42.464Z,9.30
2023-01-18T01:32:10.131Z,9.60
2023-01-18T01:34:37.407Z,7.88
2023-01-18T01:37:05.252Z,12.35
2023-01-18T01:39:32.480Z,6.60
2023-01-18T01:41:59.853Z,8.32
2023-01-18T01:44:34.012Z,8.57
2023-01-18T01:47:04.345Z,8.93
2023-01-18T01:49:36.733Z,9.27
2023-01-18T01:52:05.878Z,9.25
2023-01-18T01:54:39.544Z,8.45
2023-01-18T01:57:12.280Z,14.60
2023-01-18T01:59:41.609Z,9.95
2023-01-18T02:04:36.379Z,10.75
2023-01-18T02:07:03.715Z,8.40
2023-01-18T02:09:30.941Z,7.70
2023-01-18T02:11:58.164Z,9.93
2023-01-18T02:14:27.145Z,8.15
2023-01-18T02:16:54.352Z,9.50
2023-01-18T02:19:36.774Z,7.78
2023-01-18T02:22:30.445Z,12.00
2023-01-18T02:25:03.767Z,9.65
2023-01-18T02:27:46.112Z,8.85
2023-01-18T02:30:16.999Z,10.63
2023-01-18T02:33:03.084Z,7.80
2023-01-18T02:35:51.235Z,10.45
2023-01-18T02:38:25.069Z,8.77
2023-01-18T02:40:57.962Z,11.27
2023-01-18T02:43:44.704Z,10.35
2023-01-18T02:46:33.064Z,8.00
2023-01-18T02:49:05.890Z,7.60
2023-01-18T02:51:33.254Z,9.27
2023-01-18T02:54:01.184Z,13.75
2023-01-18T02:56:28.355Z,9.48
2023-01-18T02:59:05.145Z,14.10
2023-01-18T03:01:35.478Z,14.65
2023-01-18T03:04:06.059Z,12.75
2023-01-18T03:06:33.717Z,9.20
2023-01-18T03:09:01.346Z,9.98
2023-01-18T03:11:28.574Z,8.25
2023-01-18T03:14:08.077Z,7.63
2023-01-18T03:16:58.085Z,7.43
2023-01-18T03:19:53.087Z,10.85
2023-01-18T03:22:40.421Z,11.45
2023-01-18T03:25:09.617Z,12.25
2023-01-18T03:27:56.047Z,10.05
2023-01-18T03:30:41.870Z,11.05
2023-01-18T03:33:28.196Z,12.35
2023-01-18T03:35:56.085Z,12.82
2023-01-18T03:38:23.783Z,12.05
2023-01-18T03:40:51.067Z,12.43
2023-01-18T03:43:19.905Z,12.80
2023-01-18T03:45:48.893Z,10.73
2023-01-18T03:48:16.553Z,11.57
2023-01-18T03:50:55.413Z,12.40
2023-01-18T03:53:42.868Z,12.95
2023-01-18T03:56:36.440Z,11.07
2023-01-18T03:59:05.695Z,12.38
2023-01-18T04:01:33.104Z,11.40
2023-01-18T04:04:00.433Z,10.02
2023-01-18T04:06:27.866Z,12.02
2023-01-18T04:08:55.331Z,9.25
2023-01-18T04:11:22.529Z,10.88
2023-01-18T04:13:49.737Z,12.88
2023-01-18T04:16:17.027Z,15.50
2023-01-18T04:18:44.239Z,13.10
2023-01-18T04:21:11.454Z,9.80
2023-01-18T04:23:38.667Z,12.00
2023-01-18T04:26:06.069Z,9.40
2023-01-18T04:28:34.510Z,11.57
2023-01-18T04:31:01.789Z,12.10
2023-01-18T04:33:29.119Z,11.32
2023-01-18T04:35:56.391Z,9.55
2023-01-18T04:38:24.068Z,12.30
2023-01-18T04:40:51.292Z,12.82
2023-01-18T04:43:18.549Z,11.02
2023-01-18T04:45:53.157Z,10.55
2023-01-18T04:48:20.339Z,16.35
2023-01-18T04:50:48.519Z,9.45
2023-01-18T04:53:16.165Z,8.88
2023-01-18T04:55:43.423Z,13.57
2023-01-18T04:58:10.958Z,17.00
2023-01-18T05:00:41.379Z,11.13
2023-01-18T05:03:09.023Z,12.23
2023-01-18T05:05:36.387Z,11.50
2023-01-18T05:08:04.004Z,12.85
2023-01-18T05:10:33.512Z,12.77
2023-01-18T05:13:01.249Z,11.82
2023-01-18T05:15:28.799Z,12.82
2023-01-18T05:17:56.154Z,10.45
2023-01-18T05:20:23.454Z,9.68
2023-01-18T05:22:50.665Z,11.13
2023-01-18T05:25:17.958Z,11.05
2023-01-18T05:27:45.191Z,12.07
2023-01-18T05:30:12.613Z,11.50
2023-01-18T05:32:39.802Z,12.23
2023-01-18T05:35:07.614Z,18.92
2023-01-18T05:37:34.884Z,11.98
2023-01-18T05:40:02.174Z,10.80
2023-01-18T05:42:29.380Z,12.30
2023-01-18T05:44:56.622Z,16.45
2023-01-18T05:47:23.916Z,13.82
2023-01-18T05:49:51.103Z,10.25
2023-01-18T05:52:18.386Z,12.75
2023-01-18T05:54:45.637Z,9.32
2023-01-18T05:57:12.887Z,9.90
2023-01-18T05:59:40.113Z,12.07
2023-01-18T06:02:07.416Z,13.52
2023-01-18T06:04:34.865Z,12.95
2023-01-18T06:07:02.161Z,10.93
2023-01-18T06:09:30.203Z,15.27
2023-01-18T06:11:57.445Z,13.43
2023-01-18T06:14:24.771Z,10.38
2023-01-18T06:16:51.952Z,12.52
2023-01-18T06:19:19.215Z,11.55
2023-01-18T06:21:47.018Z,14.38
2023-01-18T06:24:14.284Z,9.30
2023-01-18T06:26:41.537Z,10.13
2023-01-18T06:29:08.902Z,10.15
2023-01-18T06:31:36.227Z,10.18
2023-01-18T06:34:09.296Z,11.75
2023-01-18T06:36:39.987Z,10.82
2023-01-18T06:39:07.507Z,8.48
2023-01-18T06:41:34.723Z,10.02
2023-01-18T06:44:01.962Z,10.20
2023-01-18T06:46:29.293Z,10.63
2023-01-18T06:48:56.518Z,10.95
2023-01-18T06:51:24.136Z,11.23
2023-01-18T06:53:51.400Z,12.05
2023-01-18T06:56:18.838Z,10.57
2023-01-18T06:58:46.110Z,10.82
2023-01-18T07:01:13.548Z,9.27
2023-01-18T07:03:40.888Z,12.10
2023-01-18T07:06:08.166Z,11.40
2023-01-18T07:08:35.759Z,11.77
2023-01-18T07:11:07.163Z,12.63
2023-01-18T07:13:34.726Z,8.55
2023-01-18T07:16:02.353Z,11.20
2023-01-18T07:18:30.501Z,11.63
2023-01-18T07:21:01.864Z,11.68
2023-01-18T07:23:29.833Z,12.48
2023-01-18T07:26:08.137Z,9.88
2023-01-18T07:28:36.272Z,18.23
2023-01-18T07:31:04.194Z,12.90
2023-01-18T07:33:31.683Z,9.45
2023-01-18T07:35:59.474Z,9.68
2023-01-18T07:38:27.039Z,13.75
2023-01-18T07:41:02.264Z,10.30
2023-01-18T07:43:30.496Z,12.27
2023-01-18T07:45:58.250Z,10.90
2023-01-18T07:48:26.478Z,13.48
2023-01-18T07:50:57.646Z,11.63
2023-01-18T07:53:25.254Z,13.32
2023-01-18T07:55:52.639Z,12.07
2023-01-18T07:58:20.313Z,10.30
2023-01-18T08:00:47.864Z,13.90
2023-01-18T08:03:15.860Z,13.10
2023-01-18T08:05:43.483Z,17.42
2023-01-18T08:08:14.934Z,15.75
2023-01-18T08:10:42.578Z,13.18
2023-01-18T08:13:10.589Z,12.10
2023-01-18T08:15:38.811Z,9.70
2023-01-18T08:18:06.626Z,13.70
2023-01-18T08:20:33.927Z,17.50
2023-01-18T08:23:02.554Z,13.02
2023-01-18T08:25:31.715Z,11.80
2023-01-18T08:27:59.985Z,11.55
2023-01-18T08:30:28.393Z,18.27
2023-01-18T08:32:56.603Z,25.50
2023-01-18T08:35:24.562Z,11.00
2023-01-18T08:37:52.448Z,13.30
2023-01-18T08:40:20.326Z,13.98
2023-01-18T08:42:47.672Z,15.32
2023-01-18T08:45:15.461Z,18.30
2023-01-18T08:47:42.725Z,18.08
2023-01-18T08:50:12.301Z,19.10
2023-01-18T08:52:39.636Z,20.58
2023-01-18T08:55:07.568Z,22.05
2023-01-18T08:57:34.816Z,24.23
2023-01-18T09:00:04.353Z,23.67
2023-01-18T09:02:32.708Z,22.27
2023-01-18T09:04:59.950Z,19.15
2023-01-18T09:07:27.695Z,23.92
2023-01-18T09:09:55.081Z,21.10
2023-01-18T09:12:22.502Z,19.83
2023-01-18T09:14:50.122Z,21.42
2023-01-18T09:17:21.216Z,22.88
2023-01-18T09:19:48.537Z,21.10
2023-01-18T09:22:15.805Z,17.45
2023-01-18T09:24:43.350Z,18.58
2023-01-18T09:27:11.571Z,17.38
2023-01-18T09:29:38.873Z,17.42
2023-01-18T09:32:08.110Z,15.90
2023-01-18T09:34:35.974Z,15.30
2023-01-18T09:37:03.529Z,12.15
2023-01-18T09:39:40.209Z,11.25
2023-01-18T09:42:20.806Z,11.02
2023-01-18T09:44:50.159Z,10.27
2023-01-18T09:49:55.370Z,7.13
2023-01-18T09:52:27.966Z,11.02
2023-01-18T09:55:00.187Z,10.82
2023-01-18T09:57:45.111Z,7.20
2023-01-18T10:00:20.952Z,9.85
2023-01-18T10:02:51.795Z,8.88
2023-01-18T10:05:21.499Z,8.77
2023-01-18T10:08:02.541Z,7.72
2023-01-18T10:10:53.247Z,9.25
2023-01-18T10:13:43.594Z,8.35
2023-01-18T10:16:14.916Z,8.68
2023-01-18T10:18:45.610Z,8.90
2023-01-18T10:21:21.845Z,7.68
2023-01-18T10:23:58.334Z,7.18
2023-01-18T10:26:30.743Z,9.80
2023-01-18T10:29:04.049Z,7.32
2023-01-18T10:31:49.495Z,9.35
2023-01-18T10:34:21.035Z,7.80
2023-01-18T10:36:50.109Z,8.45
2023-01-18T10:39:23.363Z,12.80
2023-01-18T10:41:51.858Z,11.50
2023-01-18T10:44:19.075Z,9.03
2023-01-18T10:46:46.360Z,7.03
2023-01-18T10:49:33.533Z,9.95
2023-01-18T10:52:17.692Z,10.68
2023-01-18T10:55:01.238Z,7.32
2023-01-18T10:57:31.327Z,6.65
2023-01-18T10:59:59.733Z,8.10
2023-01-18T11:02:31.740Z,6.43
2023-01-18T11:05:01.604Z,5.93
2023-01-18T11:07:29.507Z,5.32
2023-01-18T11:09:59.390Z,8.00
2023-01-18T11:12:38.675Z,8.20
2023-01-18T11:17:33.701Z,5.85
2023-01-18T11:20:07.817Z,14.13
2023-01-18T11:22:35.931Z,7.47
2023-01-18T11:25:03.215Z,8.77
2023-01-18T11:27:32.313Z,6.07
2023-01-18T11:29:59.596Z,5.68
2023-01-18T11:32:28.649Z,4.85
2023-01-18T11:34:57.124Z,7.20
2023-01-18T11:37:30.295Z,9.38
2023-01-18T11:39:58.048Z,9.07
2023-01-18T11:42:28.622Z,6.93
2023-01-18T11:45:04.735Z,10.05
2023-01-18T11:47:37.098Z,10.68
2023-01-18T11:50:21.573Z,6.65
2023-01-18T11:52:54.536Z,10.80
2023-01-18T11:55:31.373Z,5.05
2023-01-18T11:57:59.751Z,6.68
2023-01-18T12:00:30.586Z,7.05
2023-01-18T12:03:16.665Z,5.38
2023-01-18T12:05:46.053Z,7.15
2023-01-18T12:10:54.779Z,7.50
2023-01-18T12:13:34.356Z,8.60
2023-01-18T12:18:28.676Z,5.65
2023-01-18T12:20:58.699Z,4.95
2023-01-18T12:23:29.031Z,6.60
2023-01-18T12:26:14.722Z,6.85
2023-01-18T12:29:00.746Z,7.18
2023-01-18T12:31:42.817Z,6.43
2023-01-18T12:34:10.421Z,14.57
2023-01-18T12:36:56.585Z,7.82
2023-01-18T12:39:23.828Z,7.38
2023-01-18T12:41:58.441Z,9.18
2023-01-18T12:44:31.095Z,5.30
2023-01-18T12:47:06.679Z,6.30
2023-01-18T12:49:46.295Z,5.32
2023-01-18T12:52:19.349Z,7.03
2023-01-18T12:54:48.692Z,5.95
2023-01-18T12:57:17.188Z,6.20
2023-01-18T12:59:55.670Z,8.40
2023-01-18T13:02:25.935Z,3.93
2023-01-18T13:04:58.918Z,6.18
2023-01-18T13:07:43.776Z,5.07
2023-01-18T13:10:17.822Z,5.70
2023-01-18T13:12:45.366Z,6.22
2023-01-18T13:15:35.637Z,7.30
2023-01-18T13:18:11.314Z,5.07
2023-01-18T13:20:44.735Z,5.78
2023-01-18T13:23:30.268Z,6.10
2023-01-18T13:26:16.196Z,7.13
2023-01-18T13:28:44.134Z,7.15
2023-01-18T13:31:11.521Z,7.18
2023-01-18T13:33:40.914Z,2.28
2023-01-18T13:36:08.209Z,7.57
2023-01-18T13:38:42.267Z,5.05
2023-01-18T13:41:12.642Z,3.53
2023-01-18T13:43:46.122Z,3.05
2023-01-18T13:46:16.226Z,2.67
2023-01-18T13:48:47.662Z,3.63
2023-01-18T13:51:35.241Z,4.25
2023-01-18T13:54:02.617Z,7.07
2023-01-18T13:56:30.687Z,6.60
2023-01-18T13:59:18.565Z,5.82
2023-01-18T14:01:48.800Z,10.35
2023-01-18T14:04:19.123Z,5.72
2023-01-18T14:06:46.819Z,5.97
2023-01-18T14:09:16.031Z,6.20
2023-01-18T14:11:45.869Z,5.15
2023-01-18T14:14:17.486Z,5.30
2023-01-18T14:16:59.981Z,5.55
2023-01-18T14:19:28.321Z,6.25
2023-01-18T14:21:58.564Z,5.75
2023-01-18T14:24:37.772Z,6.95
2023-01-18T14:27:06.269Z,3.75
2023-01-18T14:29:52.417Z,3.93
2023-01-18T14:32:23.437Z,5.05
2023-01-18T14:35:00.728Z,4.88
2023-01-18T14:37:29.505Z,5.43
2023-01-18T14:40:03.810Z,3.80
2023-01-18T14:42:34.763Z,4.20
2023-01-18T14:45:05.400Z,9.38
2023-01-18T14:47:33.936Z,4.43
2023-01-18T14:50:04.908Z,9.20
2023-01-18T14:52:34.282Z,6.43
2023-01-18T14:57:28.775Z,9.70
2023-01-18T14:59:57.624Z,4.38
2023-01-18T15:02:29.156Z,5.10
2023-01-18T15:05:13.259Z,7.80
2023-01-18T15:07:41.102Z,4.18
2023-01-18T15:10:09.293Z,8.52
2023-01-18T15:12:36.958Z,5.03
2023-01-18T15:15:08.950Z,6.50
2023-01-18T15:17:37.144Z,3.88
2023-01-18T15:20:07.350Z,5.82
2023-01-18T15:22:36.996Z,6.80
2023-01-18T15:25:04.578Z,9.25
2023-01-18T15:27:32.807Z,6.45
2023-01-18T15:30:00.949Z,5.53
2023-01-18T15:32:30.671Z,4.15
2023-01-18T15:34:58.881Z,8.57
2023-01-18T15:37:27.545Z,2.97
2023-01-18T15:39:58.077Z,7.45
2023-01-18T15:42:33.400Z,3.60
2023-01-18T15:45:00.874Z,4.15
2023-01-18T15:47:29.469Z,5.75
2023-01-18T15:49:58.437Z,7.30
2023-01-18T15:53:02.140Z,3.63
2023-01-18T15:55:40.817Z,5.72
2023-01-18T15:58:12.253Z,5.95
2023-01-18T16:00:40.987Z,5.63
2023-01-18T16:03:22.137Z,4.47
2023-01-18T16:06:07.799Z,6.97
2023-01-18T16:08:35.426Z,6.45
2023-01-18T16:11:02.686Z,7.45
2023-01-18T16:13:34.545Z,4.30
2023-01-18T16:16:07.488Z,6.78
2023-01-18T16:18:34.796Z,6.90
2023-01-18T16:21:02.345Z,3.92
2023-01-18T16:23:30.105Z,7.43
2023-01-18T16:26:01.240Z,4.50
2023-01-18T16:28:28.672Z,4.80
2023-01-18T16:30:56.026Z,8.30
2023-01-18T16:33:23.819Z,6.78
2023-01-18T16:35:51.395Z,4.60
2023-01-18T16:38:20.108Z,3.47
2023-01-18T16:40:49.747Z,7.82
2023-01-18T16:43:23.320Z,2.22
2023-01-18T16:45:52.585Z,5.25
2023-01-18T16:50:48.220Z,6.40
2023-01-18T16:53:15.572Z,5.63
2023-01-18T16:55:44.036Z,3.88
2023-01-18T16:58:13.019Z,4.80
2023-01-18T17:00:52.324Z,5.72
2023-01-18T17:05:46.807Z,6.85
2023-01-18T17:08:14.823Z,6.10
2023-01-18T17:10:43.509Z,8.93
2023-01-18T17:13:10.917Z,5.30
2023-01-18T17:15:41.606Z,5.38
2023-01-18T17:18:14.488Z,5.45
2023-01-18T17:20:41.760Z,17.75
2023-01-18T17:23:09.334Z,7.70
2023-01-18T17:25:36.792Z,7.13
2023-01-18T17:28:04.575Z,5.43
2023-01-18T17:30:32.971Z,6.68
2023-01-18T17:33:00.834Z,4.35
2023-01-18T17:35:28.723Z,5.95
2023-01-18T17:38:04.628Z,8.20
2023-01-18T17:40:40.894Z,6.43
2023-01-18T17:43:28.420Z,4.88
2023-01-18T17:46:01.932Z,4.75
2023-01-18T17:48:29.426Z,4.93
2023-01-18T17:50:56.720Z,5.10
2023-01-18T17:53:24.027Z,4.57
2023-01-18T17:55:51.304Z,15.68
2023-01-18T17:58:18.571Z,12.57
2023-01-18T18:00:45.864Z,9.00
2023-01-18T18:03:13.387Z,13.43
2023-01-18T18:05:40.795Z,11.45
2023-01-18T18:08:08.914Z,7.50
2023-01-18T18:10:36.315Z,8.77
2023-01-18T18:13:03.994Z,8.73
2023-01-18T18:15:31.461Z,8.32
2023-01-18T18:17:58.779Z,9.02
2023-01-18T18:20:26.050Z,9.73
2023-01-18T18:22:53.321Z,6.68
2023-01-18T18:25:20.571Z,10.30
2023-01-18T18:27:47.930Z,14.85
2023-01-18T18:30:16.693Z,10.57
2023-01-18T18:32:44.027Z,16.50
2023-01-18T18:35:24.466Z,11.55
2023-01-18T18:37:54.084Z,7.50
2023-01-18T18:40:21.892Z,7.18
2023-01-18T18:43:01.120Z,14.57
2023-01-18T18:45:30.347Z,7.70
2023-01-18T18:47:59.729Z,9.45
2023-01-18T18:50:28.993Z,8.00
2023-01-18T18:52:56.516Z,9.95
2023-01-18T18:55:24.467Z,14.00
2023-01-18T18:57:51.753Z,9.73
2023-01-18T19:00:19.367Z,10.63
2023-01-18T19:02:46.726Z,12.15
2023-01-18T19:05:15.197Z,11.18
2023-01-18T19:07:43.019Z,11.60
2023-01-18T19:10:11.535Z,13.88
2023-01-18T19:12:38.873Z,7.17
2023-01-18T19:15:06.277Z,10.73
2023-01-18T19:17:33.514Z,6.93
2023-01-18T19:20:00.764Z,10.35
2023-01-18T19:22:28.081Z,8.05
2023-01-18T19:24:55.397Z,13.00
2023-01-18T19:27:24.592Z,12.57
2023-01-18T19:29:53.133Z,12.90
2023-01-18T19:32:20.936Z,11.68
2023-01-18T19:34:48.174Z,14.82
2023-01-18T19:37:15.499Z,8.20
2023-01-18T19:39:42.849Z,11.77
2023-01-18T19:42:10.124Z,9.02
2023-01-18T19:44:37.419Z,14.90
2023-01-18T19:47:04.710Z,10.57
2023-01-18T19:49:32.008Z,11.10
2023-01-18T19:51:59.467Z,10.38
2023-01-18T19:54:26.761Z,10.45
2023-01-18T19:56:54.074Z,9.38
2023-01-18T19:59:21.323Z,11.10
2023-01-18T20:01:48.747Z,13.00
2023-01-18T20:04:16.470Z,6.55
2023-01-18T20:06:45.913Z,10.70
2023-01-18T20:09:27.006Z,12.93
2023-01-18T20:12:01.511Z,8.25
2023-01-18T20:14:40.395Z,7.70
2023-01-18T20:17:08.338Z,8.55
2023-01-18T20:19:35.742Z,10.30
2023-01-18T20:22:03.137Z,8.18
2023-01-18T20:24:30.445Z,7.97
2023-01-18T20:27:10.534Z,8.95
2023-01-18T20:29:42.052Z,7.63
2023-01-18T20:32:16.157Z,10.98
2023-01-18T20:34:47.544Z,13.68
2023-01-18T20:37:15.601Z,10.15
2023-01-18T20:39:43.010Z,9.70
2023-01-18T20:42:10.348Z,5.95
2023-01-18T20:44:37.855Z,4.25
2023-01-18T20:47:05.213Z,4.50
2023-01-18T20:49:38.286Z,3.53
2023-01-18T20:52:07.094Z,4.50
2023-01-18T20:54:36.191Z,3.50
2023-01-18T20:57:04.036Z,4.32
2023-01-18T20:59:31.355Z,7.43
2023-01-18T21:01:58.853Z,4.97
2023-01-18T21:04:26.383Z,8.10
2023-01-18T21:06:54.358Z,4.18
2023-01-18T21:09:21.650Z,3.30
2023-01-18T21:11:48.904Z,5.32
2023-01-18T21:14:16.243Z,1.30
2023-01-18T21:16:43.791Z,2.83
2023-01-18T21:19:11.135Z,4.25
2023-01-18T21:21:38.404Z,4.75
2023-01-18T21:24:05.719Z,3.78
2023-01-18T21:26:33.051Z,7.13
2023-01-18T21:29:00.326Z,6.45
2023-01-18T21:31:27.729Z,5.60
2023-01-18T21:33:55.322Z,4.30
2023-01-18T21:36:23.138Z,4.10
2023-01-18T21:38:50.729Z,5.22
2023-01-18T21:41:37.194Z,3.63
2023-01-18T21:44:23.303Z,4.47
2023-01-18T21:46:51.857Z,6.70
2023-01-18T21:52:44.003Z,5.78
2023-01-18T21:55:11.304Z,6.80
2023-01-18T21:57:39.001Z,8.48
2023-01-18T22:00:06.673Z,6.25
2023-01-18T22:02:37.021Z,9.68
2023-01-18T22:05:04.986Z,13.50
2023-01-18T22:07:34.175Z,11.15
2023-01-18T22:10:05.611Z,14.77
2023-01-18T22:12:35.105Z,10.27
2023-01-18T22:17:30.439Z,11.07
2023-01-18T22:19:57.674Z,8.88
2023-01-18T22:22:24.992Z,13.02
2023-01-18T22:24:52.365Z,9.65
2023-01-18T22:27:19.741Z,13.98
2023-01-18T22:29:47.068Z,9.02
2023-01-18T22:32:14.463Z,12.07
2023-01-18T22:34:41.663Z,6.70
2023-01-18T22:37:09.776Z,12.13
2023-01-18T22:39:36.988Z,14.05
2023-01-18T22:42:04.296Z,9.30
2023-01-18T22:44:32.811Z,4.65
2023-01-18T22:47:00.216Z,1.83
2023-01-18T22:49:27.502Z,2.35
2023-01-18T22:51:54.954Z,1.38
2023-01-18T22:54:22.979Z,1.85
2023-01-18T22:56:50.422Z,3.40
2023-01-18T22:59:17.663Z,3.20
2023-01-18T23:01:45.012Z,2.55
2023-01-18T23:04:12.239Z,6.68
2023-01-18T23:06:46.581Z,2.88
2023-01-18T23:09:15.179Z,2.55
2023-01-18T23:11:42.431Z,1.50
2023-01-18T23:14:28.467Z,5.40
2023-01-18T23:17:14.709Z,3.20
2023-01-18T23:19:41.934Z,12.38
2023-01-18T23:22:09.247Z,4.72
2023-01-18T23:24:37.207Z,3.35
2023-01-18T23:27:05.645Z,3.22
2023-01-18T23:29:33.089Z,6.10
2023-01-18T23:32:00.417Z,3.03
2023-01-18T23:34:27.609Z,5.00
2023-01-18T23:36:55.163Z,1.80
2023-01-18T23:39:41.134Z,2.97
2023-01-18T23:42:26.912Z,5.70
2023-01-18T23:45:13.042Z,6.82
2023-01-18T23:47:59.304Z,3.88
2023-01-18T23:50:45.543Z,5.65
2023-01-18T23:53:32.722Z,3.90
2023-01-18T23:56:00.422Z,5.00
2023-01-18T23:58:27.988Z,4.60
